createdAt,value
2018-03-20T00:00:06.721Z,-4.20
2018-03-20T00:02:35.126Z,-4.20
2018-03-20T00:05:02.686Z,-4.20
2018-03-20T00:07:30.205Z,-4.20
2018-03-20T00:09:57.735Z,-4.20
2018-03-20T00:12:25.245Z,-4.10
2018-03-20T00:14:52.778Z,-4.10
2018-03-20T00:17:20.423Z,-4.20
2018-03-20T00:19:47.928Z,-4.20
2018-03-20T00:22:15.443Z,-4.20
2018-03-20T00:24:43.014Z,-4.20
2018-03-20T00:27:10.531Z,-4.20
2018-03-20T00:29:38.082Z,-4.20
2018-03-20T00:32:06.410Z,-4.20
2018-03-20T00:34:34.714Z,-4.20
2018-03-20T00:37:02.388Z,-4.20
2018-03-20T00:39:30.240Z,-4.10
2018-03-20T00:41:58.119Z,-4.20
2018-03-20T00:44:25.628Z,-4.10
2018-03-20T00:46:53.197Z,-4.10
2018-03-20T00:49:20.738Z,-4.10
2018-03-20T00:51:48.260Z,-4.10
2018-03-20T00:54:15.807Z,-4.10
2018-03-20T00:56:44.077Z,-4.10
2018-03-20T00:59:12.360Z,-4.10
2018-03-20T01:01:40.822Z,-4.10
2018-03-20T01:04:08.335Z,-4.10
2018-03-20T01:10:57.949Z,-4.10
2018-03-20T01:13:26.358Z,-4.10
2018-03-20T01:15:53.865Z,-4.10
2018-03-20T01:18:21.380Z,-4.10
2018-03-20T01:20:48.912Z,-4.10
2018-03-20T01:23:17.196Z,-4.10
2018-03-20T01:25:45.474Z,-4.20
2018-03-20T01:28:13.980Z,-4.10
2018-03-20T01:30:41.496Z,-4.10
2018-03-20T01:33:09.010Z,-4.10
2018-03-20T01:35:36.550Z,-4.10
2018-03-20T01:38:04.844Z,-4.10
2018-03-20T01:40:33.153Z,-4.10
2018-03-20T01:43:00.665Z,-4.10
2018-03-20T01:45:28.180Z,-4.10
2018-03-20T01:47:55.728Z,-4.00
2018-03-20T01:50:23.261Z,-4.00
2018-03-20T01:53:03.514Z,-4.10
2018-03-20T01:55:31.786Z,-4.10
2018-03-20T01:57:59.304Z,-4.10
2018-03-20T02:00:26.940Z,-4.10
2018-03-20T02:02:55.221Z,-4.10
2018-03-20T02:05:23.492Z,-4.10
2018-03-20T02:07:51.988Z,-4.00
2018-03-20T02:10:19.509Z,-4.10
2018-03-20T02:12:47.137Z,-4.00
2018-03-20T02:15:14.684Z,-4.10
2018-03-20T02:17:42.207Z,-4.10
2018-03-20T02:20:11.231Z,-4.00
2018-03-20T02:22:39.540Z,-4.00
2018-03-20T02:25:07.061Z,-4.00
2018-03-20T02:27:34.593Z,-4.00
2018-03-20T02:30:02.318Z,-4.10
2018-03-20T02:32:29.837Z,-4.10
2018-03-20T02:34:57.365Z,-4.10
2018-03-20T02:37:24.911Z,-4.10
2018-03-20T02:39:52.434Z,-4.10
2018-03-20T02:42:19.947Z,-4.10
2018-03-20T02:44:47.531Z,-4.10
2018-03-20T02:47:15.061Z,-4.10
2018-03-20T02:49:42.578Z,-4.10
2018-03-20T02:52:10.124Z,-4.10
2018-03-20T02:54:37.632Z,-4.00
2018-03-20T02:57:05.904Z,-4.10
2018-03-20T02:59:33.552Z,-4.10
2018-03-20T03:02:01.082Z,-4.10
2018-03-20T03:04:28.611Z,-4.10
2018-03-20T03:06:56.925Z,-4.10
2018-03-20T03:09:24.436Z,-4.20
2018-03-20T03:11:51.943Z,-4.10
2018-03-20T03:14:19.485Z,-4.10
2018-03-20T03:16:47.764Z,-4.10
2018-03-20T03:19:16.057Z,-4.00
2018-03-20T03:21:44.322Z,-4.10
2018-03-20T03:24:12.725Z,-4.00
2018-03-20T03:26:40.237Z,-4.00
2018-03-20T03:29:07.742Z,-4.10
2018-03-20T03:31:36.058Z,-4.10
2018-03-20T03:34:03.574Z,-4.10
2018-03-20T03:36:31.867Z,-4.10
2018-03-20T03:38:59.408Z,-4.20
2018-03-20T03:41:26.925Z,-4.20
2018-03-20T03:43:54.430Z,-4.10
2018-03-20T03:46:21.952Z,-4.10
2018-03-20T03:48:49.468Z,-4.20
2018-03-20T03:51:17.736Z,-4.10
2018-03-20T03:53:45.285Z,-4.20
2018-03-20T03:56:12.792Z,-4.20
2018-03-20T03:58:41.065Z,-4.10
2018-03-20T04:01:09.364Z,-4.20
2018-03-20T04:03:36.871Z,-4.20
2018-03-20T04:06:04.381Z,-4.20
2018-03-20T04:08:32.021Z,-4.20
2018-03-20T04:10:59.531Z,-4.20
2018-03-20T04:13:27.048Z,-4.20
2018-03-20T04:15:55.470Z,-4.20
2018-03-20T04:18:22.977Z,-4.20
2018-03-20T04:20:50.483Z,-4.20
2018-03-20T04:23:18.019Z,-4.10
2018-03-20T04:25:46.311Z,-4.10
2018-03-20T04:28:14.618Z,-4.10
2018-03-20T04:30:42.128Z,-4.20
2018-03-20T04:33:09.625Z,-4.20
2018-03-20T04:35:37.923Z,-4.10
2018-03-20T04:38:05.434Z,-4.10
2018-03-20T04:40:32.953Z,-4.10
2018-03-20T04:43:00.498Z,-4.10
2018-03-20T04:45:28.017Z,-4.10
2018-03-20T04:47:55.543Z,-4.10
2018-03-20T04:50:23.123Z,-4.10
2018-03-20T04:52:50.644Z,-4.10
2018-03-20T04:55:18.942Z,-4.10
2018-03-20T04:57:46.527Z,-4.10
2018-03-20T05:00:14.041Z,-4.10
2018-03-20T05:02:42.327Z,-4.10
2018-03-20T05:05:10.666Z,-4.00
2018-03-20T05:07:38.173Z,-4.00
2018-03-20T05:10:06.462Z,-4.10
2018-03-20T05:12:34.870Z,-4.10
2018-03-20T05:15:02.375Z,-4.10
2018-03-20T05:17:29.895Z,-4.10
2018-03-20T05:20:13.237Z,-4.00
2018-03-20T05:22:56.419Z,-4.00
2018-03-20T05:25:24.109Z,-4.00
2018-03-20T05:27:51.624Z,-4.00
2018-03-20T05:30:19.134Z,-4.00
2018-03-20T05:32:46.665Z,-4.00
2018-03-20T05:35:14.975Z,-3.90
2018-03-20T05:37:42.493Z,-3.90
2018-03-20T05:40:10.046Z,-3.90
2018-03-20T05:42:37.605Z,-3.90
2018-03-20T05:45:05.121Z,-3.90
2018-03-20T05:47:35.322Z,-3.90
2018-03-20T05:50:09.306Z,-3.90
2018-03-20T05:52:36.836Z,-3.90
2018-03-20T05:55:04.363Z,-3.80
2018-03-20T05:57:32.649Z,-4.00
2018-03-20T06:00:00.993Z,-4.00
2018-03-20T06:02:28.507Z,-4.00
2018-03-20T06:04:56.022Z,-4.00
2018-03-20T06:07:23.564Z,-3.90
2018-03-20T06:09:51.073Z,-3.90
2018-03-20T06:12:19.440Z,-3.80
2018-03-20T06:14:47.002Z,-3.90
2018-03-20T06:17:14.542Z,-3.80
2018-03-20T06:19:42.078Z,-3.80
2018-03-20T06:22:09.653Z,-3.70
2018-03-20T06:24:37.176Z,-3.80
2018-03-20T06:27:05.466Z,-3.80
2018-03-20T06:29:33.780Z,-3.90
2018-03-20T06:32:01.316Z,-3.90
2018-03-20T06:34:28.846Z,-3.80
2018-03-20T06:36:56.397Z,-3.70
2018-03-20T06:39:23.940Z,-3.70
2018-03-20T06:41:51.473Z,-3.80
2018-03-20T06:44:19.021Z,-3.80
2018-03-20T06:46:47.314Z,-3.80
2018-03-20T06:49:14.830Z,-3.90
2018-03-20T06:51:42.382Z,-3.80
2018-03-20T06:54:09.912Z,-3.80
2018-03-20T06:56:37.432Z,-3.70
2018-03-20T06:59:04.970Z,-3.60
2018-03-20T07:01:32.504Z,-3.60
2018-03-20T07:04:00.032Z,-3.70
2018-03-20T07:06:27.592Z,-3.70
2018-03-20T07:08:55.098Z,-3.70
2018-03-20T07:11:22.612Z,-3.70
2018-03-20T07:13:50.250Z,-3.70
2018-03-20T07:16:17.827Z,-3.80
2018-03-20T07:18:45.352Z,-3.70
2018-03-20T07:21:13.101Z,-3.70
2018-03-20T07:23:41.376Z,-3.70
2018-03-20T07:26:09.697Z,-3.70
2018-03-20T07:28:37.241Z,-3.70
2018-03-20T07:31:04.769Z,-3.70
2018-03-20T07:33:32.317Z,-3.60
2018-03-20T07:35:59.840Z,-3.40
2018-03-20T07:38:27.378Z,-3.40
2018-03-20T07:40:55.712Z,-3.30
2018-03-20T07:43:23.249Z,-3.30
2018-03-20T07:45:50.789Z,-3.20
2018-03-20T07:48:18.362Z,-3.20
2018-03-20T07:50:45.889Z,-3.20
2018-03-20T07:53:14.221Z,-3.00
2018-03-20T07:55:41.824Z,-3.00
2018-03-20T07:58:09.366Z,-3.00
2018-03-20T08:00:36.933Z,-3.10
2018-03-20T08:03:04.552Z,-3.00
2018-03-20T08:05:32.936Z,-2.90
2018-03-20T08:08:01.321Z,-2.80
2018-03-20T08:10:29.631Z,-2.80
2018-03-20T08:12:57.224Z,-2.80
2018-03-20T08:15:24.768Z,-2.90
2018-03-20T08:17:52.295Z,-2.90
2018-03-20T08:20:20.618Z,-2.80
2018-03-20T08:22:48.164Z,-2.80
2018-03-20T08:25:15.735Z,-2.80
2018-03-20T08:27:43.276Z,-2.80
2018-03-20T08:30:10.829Z,-2.70
2018-03-20T08:32:39.178Z,-2.60
2018-03-20T08:35:06.702Z,-2.60
2018-03-20T08:37:34.250Z,-2.50
2018-03-20T08:40:01.783Z,-2.50
2018-03-20T08:42:30.118Z,-2.60
2018-03-20T08:44:57.680Z,-2.60
2018-03-20T08:47:25.239Z,-2.50
2018-03-20T08:49:52.774Z,-2.50
2018-03-20T08:52:20.428Z,-2.50
2018-03-20T08:54:47.992Z,-2.50
2018-03-20T08:57:16.339Z,-2.60
2018-03-20T08:59:44.043Z,-2.60
2018-03-20T09:02:12.356Z,-2.50
2018-03-20T09:04:39.938Z,-2.50
2018-03-20T09:07:07.504Z,-2.40
2018-03-20T09:09:35.092Z,-2.40
2018-03-20T09:12:02.651Z,-2.40
2018-03-20T09:14:30.273Z,-2.40
2018-03-20T09:16:57.825Z,-2.30
2018-03-20T09:19:26.123Z,-2.20
2018-03-20T09:21:53.785Z,-2.20
2018-03-20T09:24:21.344Z,-2.40
2018-03-20T09:26:48.861Z,-2.30
2018-03-20T09:29:17.181Z,-2.20
2018-03-20T09:31:45.466Z,-2.20
2018-03-20T09:34:13.288Z,-2.30
2018-03-20T09:36:41.622Z,-2.30
2018-03-20T09:39:09.185Z,-2.30
2018-03-20T09:41:36.742Z,-2.30
2018-03-20T09:44:04.405Z,-2.40
2018-03-20T09:46:32.844Z,-2.40
2018-03-20T09:49:00.442Z,-2.40
2018-03-20T09:51:28.113Z,-2.50
2018-03-20T09:53:56.420Z,-2.40
2018-03-20T09:56:23.958Z,-2.40
2018-03-20T09:58:52.307Z,-2.30
2018-03-20T10:01:19.848Z,-2.30
2018-03-20T10:03:47.397Z,-2.20
2018-03-20T10:06:14.980Z,-2.20
2018-03-20T10:08:42.520Z,-2.10
2018-03-20T10:11:10.068Z,-2.00
2018-03-20T10:13:37.677Z,-2.00
2018-03-20T10:16:05.216Z,-1.90
2018-03-20T10:18:32.754Z,-2.00
2018-03-20T10:21:01.081Z,-1.90
2018-03-20T10:23:28.616Z,-1.90
2018-03-20T10:25:56.147Z,-2.10
2018-03-20T10:28:23.812Z,-2.00
2018-03-20T10:30:52.118Z,-1.90
2018-03-20T10:33:20.404Z,-1.90
2018-03-20T10:35:47.991Z,-2.00
2018-03-20T10:38:15.560Z,-1.90
2018-03-20T10:40:43.092Z,-1.80
2018-03-20T10:43:10.637Z,-1.90
2018-03-20T10:45:38.951Z,-1.80
2018-03-20T10:48:06.483Z,-1.90
2018-03-20T10:50:34.788Z,-1.80
2018-03-20T10:53:02.314Z,-1.80
2018-03-20T10:55:29.846Z,-1.80
2018-03-20T10:57:57.402Z,-1.70
2018-03-20T11:00:30.580Z,-1.70
2018-03-20T11:02:58.130Z,-1.70
2018-03-20T11:05:25.651Z,-1.80
2018-03-20T11:07:53.192Z,-1.70
2018-03-20T11:10:20.755Z,-1.80
2018-03-20T11:12:48.296Z,-1.70
2018-03-20T11:15:15.830Z,-1.70
2018-03-20T11:17:44.165Z,-1.60
2018-03-20T11:20:11.709Z,-1.60
2018-03-20T11:22:39.232Z,-1.60
2018-03-20T11:25:07.595Z,-1.60
2018-03-20T11:27:35.232Z,-1.60
2018-03-20T11:30:03.540Z,-1.70
2018-03-20T11:32:31.078Z,-1.70
2018-03-20T11:34:58.627Z,-1.70
2018-03-20T11:37:26.162Z,-1.60
2018-03-20T11:39:54.487Z,-1.80
2018-03-20T11:42:22.043Z,-1.80
2018-03-20T11:44:49.565Z,-1.70
2018-03-20T11:47:17.881Z,-1.60
2018-03-20T11:49:45.413Z,-1.60
2018-03-20T11:52:13.738Z,-1.50
2018-03-20T11:54:41.312Z,-1.60
2018-03-20T11:57:08.823Z,-1.50
2018-03-20T11:59:37.119Z,-1.60
2018-03-20T12:02:04.710Z,-1.60
2018-03-20T12:04:32.261Z,-1.40
2018-03-20T12:06:59.780Z,-1.40
2018-03-20T12:09:50.030Z,-1.40
2018-03-20T12:12:17.552Z,-1.50
2018-03-20T12:14:45.086Z,-1.40
2018-03-20T12:17:13.423Z,-1.30
2018-03-20T12:19:40.966Z,-1.30
2018-03-20T12:22:08.497Z,-1.30
2018-03-20T12:24:36.044Z,-1.30
2018-03-20T12:27:03.576Z,-1.30
2018-03-20T12:29:31.101Z,-1.30
2018-03-20T12:31:59.419Z,-1.30
2018-03-20T12:34:26.957Z,-1.30
2018-03-20T12:36:55.241Z,-1.30
2018-03-20T12:39:22.886Z,-1.30
2018-03-20T12:41:50.389Z,-1.20
2018-03-20T12:44:17.938Z,-1.30
2018-03-20T12:46:45.592Z,-1.40
2018-03-20T12:49:13.113Z,-1.30
2018-03-20T12:51:40.685Z,-1.30
2018-03-20T12:54:08.229Z,-1.20
2018-03-20T12:56:35.746Z,-1.10
2018-03-20T12:59:04.067Z,-0.90
2018-03-20T13:01:31.638Z,-1.00
2018-03-20T13:03:59.176Z,-1.00
2018-03-20T13:06:26.699Z,-1.00
2018-03-20T13:08:54.286Z,-1.00
2018-03-20T13:11:22.573Z,-1.00
2018-03-20T13:13:50.117Z,-1.00
2018-03-20T13:16:18.538Z,-1.10
2018-03-20T13:18:46.084Z,-1.20
2018-03-20T13:21:13.613Z,-1.10
2018-03-20T13:23:41.190Z,-1.00
2018-03-20T13:26:09.521Z,-0.90
2018-03-20T13:28:37.039Z,-0.90
2018-03-20T13:31:05.338Z,-0.80
2018-03-20T13:33:32.870Z,-0.80
2018-03-20T13:36:00.396Z,-0.70
2018-03-20T13:38:27.986Z,-0.60
2018-03-20T13:40:55.529Z,-0.50
2018-03-20T13:43:23.971Z,-0.40
2018-03-20T13:45:52.391Z,-0.30
2018-03-20T13:48:19.918Z,-0.30
2018-03-20T13:50:52.603Z,-0.30
2018-03-20T13:53:18.683Z,-0.30
2018-03-20T13:55:46.240Z,-0.30
2018-03-20T13:58:13.775Z,-0.20
2018-03-20T14:00:41.349Z,-0.20
2018-03-20T14:03:08.969Z,-0.10
2018-03-20T14:05:37.372Z,-0.20
2018-03-20T14:08:05.017Z,-0.20
2018-03-20T14:10:32.540Z,-0.20
2018-03-20T14:13:00.885Z,-0.20
2018-03-20T14:15:28.444Z,-0.30
2018-03-20T14:17:55.995Z,-0.30
2018-03-20T14:20:24.296Z,-0.30
2018-03-20T14:22:51.889Z,-0.40
2018-03-20T14:25:19.454Z,-0.30
2018-03-20T14:27:47.023Z,-0.30
2018-03-20T14:30:14.596Z,-0.40
2018-03-20T14:32:42.125Z,-0.30
2018-03-20T14:35:09.791Z,-0.30
2018-03-20T14:37:37.409Z,-0.30
2018-03-20T14:40:04.978Z,-0.30
2018-03-20T14:42:32.508Z,-0.40
2018-03-20T14:45:00.187Z,-0.30
2018-03-20T14:47:27.766Z,-0.30
2018-03-20T14:49:55.335Z,-0.30
2018-03-20T14:52:22.911Z,-0.20
2018-03-20T14:54:51.228Z,-0.30
2018-03-20T14:57:18.754Z,-0.30
2018-03-20T14:59:47.363Z,-0.30
2018-03-20T15:02:14.918Z,-0.30
2018-03-20T15:04:43.216Z,-0.20
2018-03-20T15:07:10.786Z,-0.20
2018-03-20T15:09:38.330Z,-0.20
2018-03-20T15:12:06.634Z,-0.10
2018-03-20T15:14:34.242Z,-0.10
2018-03-20T15:17:01.784Z,0.00
2018-03-20T15:19:29.347Z,-0.10
2018-03-20T15:21:56.892Z,-0.10
2018-03-20T15:24:24.430Z,-0.10
2018-03-20T15:26:52.753Z,-0.20
2018-03-20T15:31:47.372Z,-0.30
2018-03-20T15:34:14.921Z,-0.30
2018-03-20T15:36:42.478Z,-0.30
2018-03-20T15:39:10.056Z,-0.30
2018-03-20T15:41:37.695Z,-0.30
2018-03-20T15:44:05.222Z,-0.50
2018-03-20T15:46:32.795Z,-0.50
2018-03-20T15:49:01.126Z,-0.60
2018-03-20T15:51:29.008Z,-0.70
2018-03-20T15:53:56.666Z,-0.60
2018-03-20T15:56:24.241Z,-0.60
2018-03-20T15:58:51.779Z,-0.60
2018-03-20T16:01:19.449Z,-0.70
2018-03-20T16:03:46.987Z,-0.70
2018-03-20T16:06:15.305Z,-0.70
2018-03-20T16:08:43.008Z,-0.70
2018-03-20T16:11:11.344Z,-0.70
2018-03-20T16:13:38.894Z,-0.70
2018-03-20T16:16:06.453Z,-0.70
2018-03-20T16:18:33.975Z,-0.70
2018-03-20T16:21:01.556Z,-0.70
2018-03-20T16:23:29.147Z,-0.70
2018-03-20T16:25:56.731Z,-0.70
2018-03-20T16:28:24.293Z,-0.70
2018-03-20T16:30:51.972Z,-0.70
2018-03-20T16:33:19.578Z,-0.70
2018-03-20T16:35:47.144Z,-0.70
2018-03-20T16:38:14.774Z,-0.70
2018-03-20T16:40:42.332Z,-0.70
2018-03-20T16:43:09.897Z,-0.70
2018-03-20T16:45:37.518Z,-0.70
2018-03-20T16:48:05.910Z,-0.70
2018-03-20T16:50:34.271Z,-0.70
2018-03-20T16:53:01.826Z,-0.70
2018-03-20T16:55:29.399Z,-0.70
2018-03-20T16:57:57.027Z,-0.80
2018-03-20T17:00:24.598Z,-0.70
2018-03-20T17:02:52.132Z,-0.80
2018-03-20T17:05:19.747Z,-0.80
2018-03-20T17:07:47.309Z,-0.80
2018-03-20T17:10:14.844Z,-0.80
2018-03-20T17:12:42.416Z,-0.80
2018-03-20T17:15:10.077Z,-0.80
2018-03-20T17:17:37.644Z,-0.80
2018-03-20T17:20:05.208Z,-0.90
2018-03-20T17:22:32.772Z,-0.90
2018-03-20T17:25:00.328Z,-0.90
2018-03-20T17:27:27.890Z,-0.90
2018-03-20T17:29:55.469Z,-0.90
2018-03-20T17:32:23.016Z,-0.90
2018-03-20T17:34:50.669Z,-0.90
2018-03-20T17:37:18.206Z,-0.90
2018-03-20T17:39:46.497Z,-0.90
2018-03-20T17:42:14.861Z,-0.90
2018-03-20T17:44:43.260Z,-0.90
2018-03-20T17:47:10.829Z,-1.00
2018-03-20T17:49:39.197Z,-0.90
2018-03-20T17:52:07.523Z,-1.00
2018-03-20T17:54:35.516Z,-1.00
2018-03-20T17:57:03.267Z,-1.00
2018-03-20T17:59:30.824Z,-1.00
2018-03-20T18:01:58.409Z,-1.00
2018-03-20T18:04:26.124Z,-1.00
2018-03-20T18:06:54.482Z,-1.00
2018-03-20T18:09:22.065Z,-1.00
2018-03-20T18:11:50.410Z,-1.00
2018-03-20T18:14:17.975Z,-1.00
2018-03-20T18:16:45.548Z,-1.00
2018-03-20T18:19:13.228Z,-1.00
2018-03-20T18:21:41.525Z,-1.00
2018-03-20T18:24:09.893Z,-1.00
2018-03-20T18:26:37.426Z,-1.00
2018-03-20T18:29:05.067Z,-1.00
2018-03-20T18:31:32.647Z,-1.00
2018-03-20T18:34:00.198Z,-1.00
2018-03-20T18:36:27.770Z,-1.00
2018-03-20T18:38:55.332Z,-1.00
2018-03-20T18:41:22.935Z,-1.00
2018-03-20T18:43:50.507Z,-0.90
2018-03-20T18:46:18.835Z,-1.00
2018-03-20T18:48:46.434Z,-1.00
2018-03-20T18:51:13.965Z,-1.00
2018-03-20T18:53:41.586Z,-1.00
2018-03-20T18:56:09.110Z,-1.00
2018-03-20T18:58:36.632Z,-1.00
2018-03-20T19:01:04.281Z,-1.00
2018-03-20T19:03:32.651Z,-1.00
2018-03-20T19:06:00.177Z,-1.00
2018-03-20T19:08:27.762Z,-1.10
2018-03-20T19:10:55.426Z,-1.10
2018-03-20T19:13:22.962Z,-1.10
2018-03-20T19:15:50.527Z,-1.10
2018-03-20T19:18:18.054Z,-1.10
2018-03-20T19:20:46.346Z,-1.10
2018-03-20T19:23:14.024Z,-1.10
2018-03-20T19:25:41.611Z,-1.10
2018-03-20T19:28:09.312Z,-1.20
2018-03-20T19:30:37.065Z,-1.20
2018-03-20T19:33:04.722Z,-1.20
2018-03-20T19:35:32.317Z,-1.20
2018-03-20T19:37:59.911Z,-1.20
2018-03-20T19:40:27.559Z,-1.20
2018-03-20T19:42:55.905Z,-1.30
2018-03-20T19:45:23.474Z,-1.30
2018-03-20T19:47:51.008Z,-1.30
2018-03-20T19:50:18.566Z,-1.30
2018-03-20T19:52:46.255Z,-1.30
2018-03-20T19:55:13.784Z,-1.30
2018-03-20T19:57:41.365Z,-1.30
2018-03-20T20:00:09.029Z,-1.40
2018-03-20T20:02:36.579Z,-1.40
2018-03-20T20:05:04.139Z,-1.40
2018-03-20T20:07:31.691Z,-1.50
2018-03-20T20:09:59.999Z,-1.50
2018-03-20T20:12:27.565Z,-1.50
2018-03-20T20:14:55.229Z,-1.50
2018-03-20T20:17:22.775Z,-1.50
2018-03-20T20:19:51.089Z,-1.60
2018-03-20T20:22:18.741Z,-1.60
2018-03-20T20:24:46.291Z,-1.60
2018-03-20T20:27:13.854Z,-1.60
2018-03-20T20:29:41.513Z,-1.60
2018-03-20T20:32:09.832Z,-1.60
2018-03-20T20:34:37.490Z,-1.70
2018-03-20T20:37:05.830Z,-1.70
2018-03-20T20:39:34.474Z,-1.70
2018-03-20T20:42:02.025Z,-1.70
2018-03-20T20:44:29.586Z,-1.70
2018-03-20T20:46:57.131Z,-1.70
2018-03-20T20:49:24.669Z,-1.70
2018-03-20T20:51:52.391Z,-1.70
2018-03-20T20:54:19.934Z,-1.70
2018-03-20T20:56:47.481Z,-1.70
2018-03-20T20:59:15.928Z,-1.70
2018-03-20T21:01:43.487Z,-1.70
2018-03-20T21:04:11.061Z,-1.70
2018-03-20T21:06:38.644Z,-1.70
2018-03-20T21:09:06.957Z,-1.70
2018-03-20T21:11:34.500Z,-1.70
2018-03-20T21:14:02.954Z,-1.70
2018-03-20T21:16:30.469Z,-1.80
2018-03-20T21:18:57.997Z,-1.70
2018-03-20T21:21:26.348Z,-1.80
2018-03-20T21:23:53.927Z,-1.80
2018-03-20T21:26:21.492Z,-1.80
2018-03-20T21:28:49.053Z,-1.80
2018-03-20T21:31:16.732Z,-1.80
2018-03-20T21:33:44.295Z,-1.80
2018-03-20T21:36:12.651Z,-1.90
2018-03-20T21:38:40.219Z,-1.90
2018-03-20T21:41:07.742Z,-1.80
2018-03-20T21:43:35.334Z,-1.90
2018-03-20T21:46:02.886Z,-1.90
2018-03-20T21:48:30.419Z,-1.90
2018-03-20T21:50:58.969Z,-1.90
2018-03-20T21:53:26.524Z,-1.90
2018-03-20T21:55:54.075Z,-1.90
2018-03-20T21:58:21.730Z,-1.90
2018-03-20T22:00:49.250Z,-2.00
2018-03-20T22:03:17.552Z,-2.00
2018-03-20T22:05:45.183Z,-2.00
2018-03-20T22:08:12.724Z,-2.00
2018-03-20T22:10:40.260Z,-2.00
2018-03-20T22:13:07.823Z,-2.10
2018-03-20T22:15:35.344Z,-2.10
2018-03-20T22:18:02.912Z,-2.10
2018-03-20T22:20:30.482Z,-2.10
2018-03-20T22:22:58.793Z,-2.20
2018-03-20T22:25:26.328Z,-2.20
2018-03-20T22:27:54.652Z,-2.20
2018-03-20T22:30:22.259Z,-2.20
2018-03-20T22:32:50.574Z,-2.20
2018-03-20T22:35:18.182Z,-2.20
2018-03-20T22:37:45.765Z,-2.20
2018-03-20T22:40:13.304Z,-2.20
2018-03-20T22:42:40.989Z,-2.30
2018-03-20T22:45:08.547Z,-2.30
2018-03-20T22:47:36.108Z,-2.30
2018-03-20T22:50:03.673Z,-2.30
2018-03-20T22:52:31.201Z,-2.40
2018-03-20T22:54:58.835Z,-2.50
2018-03-20T22:57:27.252Z,-2.50
2018-03-20T22:59:54.795Z,-2.60
2018-03-20T23:02:23.116Z,-2.60
2018-03-20T23:04:50.763Z,-2.60
2018-03-20T23:07:18.295Z,-2.60
2018-03-20T23:09:46.617Z,-2.60
2018-03-20T23:12:14.161Z,-2.60
2018-03-20T23:14:41.715Z,-2.60
2018-03-20T23:17:09.268Z,-2.60
2018-03-20T23:19:37.598Z,-2.70
2018-03-20T23:22:05.178Z,-2.70
2018-03-20T23:24:32.698Z,-2.70
2018-03-20T23:27:00.262Z,-2.70
2018-03-20T23:29:27.789Z,-2.70
2018-03-20T23:31:55.319Z,-2.70
2018-03-20T23:34:22.958Z,-2.80
2018-03-20T23:36:50.473Z,-2.80
2018-03-20T23:39:18.006Z,-2.80
2018-03-20T23:41:45.566Z,-2.80
2018-03-20T23:44:13.092Z,-2.80
2018-03-20T23:46:40.626Z,-2.80
2018-03-20T23:49:08.195Z,-2.80
2018-03-20T23:51:35.720Z,-2.80
2018-03-20T23:54:03.224Z,-2.80
2018-03-20T23:56:30.868Z,-2.80
2018-03-20T23:58:58.378Z,-2.80
